createdAt,value
2023-04-27T00:02:12.621Z,4.00
2023-04-27T00:04:40.766Z,3.17
2023-04-27T00:07:09.146Z,2.88
2023-04-27T00:09:37.011Z,2.38
2023-04-27T00:12:05.068Z,2.70
2023-04-27T00:14:32.940Z,2.95
2023-04-27T00:17:00.799Z,4.35
2023-04-27T00:19:30.656Z,2.60
2023-04-27T00:22:00.210Z,2.33
2023-04-27T00:24:28.352Z,2.83
2023-04-27T00:27:14.614Z,2.38
2023-04-27T00:29:43.066Z,2.40
2023-04-27T00:32:11.337Z,2.22
2023-04-27T00:34:40.557Z,2.63
2023-04-27T00:37:08.391Z,2.53
2023-04-27T00:39:36.898Z,2.40
2023-04-27T00:42:05.875Z,2.00
2023-04-27T00:44:33.789Z,2.60
2023-04-27T00:47:01.706Z,1.88
2023-04-27T00:49:29.932Z,3.20
2023-04-27T00:52:00.135Z,2.38
2023-04-27T00:54:28.165Z,2.63
2023-04-27T00:56:56.317Z,1.98
2023-04-27T00:59:24.152Z,2.88
2023-04-27T01:01:52.257Z,3.10
2023-04-27T01:04:21.644Z,2.30
2023-04-27T01:06:49.657Z,2.38
2023-04-27T01:09:19.862Z,3.25
2023-04-27T01:11:47.711Z,2.20
2023-04-27T01:14:17.153Z,1.70
2023-04-27T01:16:46.476Z,2.90
2023-04-27T01:19:15.078Z,2.05
2023-04-27T01:21:43.060Z,2.00
2023-04-27T01:24:12.484Z,2.90
2023-04-27T01:26:40.310Z,1.70
2023-04-27T01:29:08.178Z,1.80
2023-04-27T01:31:36.022Z,2.72
2023-04-27T01:34:03.957Z,1.88
2023-04-27T01:36:32.411Z,1.75
2023-04-27T01:39:00.415Z,1.80
2023-04-27T01:41:29.549Z,2.03
2023-04-27T01:43:57.327Z,2.25
2023-04-27T01:46:25.382Z,1.48
2023-04-27T01:48:53.344Z,1.92
2023-04-27T01:51:21.531Z,2.28
2023-04-27T01:53:49.435Z,10.25
2023-04-27T01:56:17.375Z,4.15
2023-04-27T01:58:46.676Z,3.83
2023-04-27T02:01:14.504Z,62.25
2023-04-27T02:03:42.774Z,424.35
2023-04-27T02:06:10.776Z,341.35
2023-04-27T02:08:38.625Z,222.15
2023-04-27T02:11:06.526Z,224.55
2023-04-27T02:13:34.362Z,216.70
2023-04-27T02:16:05.102Z,202.65
2023-04-27T02:18:33.723Z,173.48
2023-04-27T02:21:01.800Z,155.20
2023-04-27T02:23:29.644Z,168.15
2023-04-27T02:25:57.466Z,150.27
2023-04-27T02:28:25.426Z,141.40
2023-04-27T02:30:53.832Z,162.10
2023-04-27T02:33:22.999Z,113.18
2023-04-27T02:35:50.818Z,401.92
2023-04-27T02:38:18.628Z,535.30
2023-04-27T02:40:46.418Z,432.73
2023-04-27T02:43:14.249Z,385.67
2023-04-27T02:45:42.106Z,368.08
2023-04-27T02:48:10.020Z,356.23
2023-04-27T02:50:43.129Z,330.73
2023-04-27T02:53:11.287Z,261.88
2023-04-27T02:55:39.592Z,307.45
2023-04-27T02:58:07.421Z,626.58
2023-04-27T03:00:36.289Z,624.97
2023-04-27T03:03:04.278Z,399.48
2023-04-27T03:05:32.336Z,490.92
2023-04-27T03:08:01.535Z,678.60
2023-04-27T03:10:29.448Z,727.15
2023-04-27T03:12:57.289Z,631.88
2023-04-27T03:15:25.094Z,587.42
2023-04-27T03:17:52.974Z,585.25
2023-04-27T03:20:21.045Z,535.75
2023-04-27T03:22:48.956Z,511.95
2023-04-27T03:25:18.206Z,451.00
2023-04-27T03:27:46.081Z,505.63
2023-04-27T03:30:14.500Z,754.58
2023-04-27T03:32:42.339Z,668.78
2023-04-27T03:35:10.781Z,589.03
2023-04-27T03:37:38.543Z,551.80
2023-04-27T03:40:07.524Z,526.53
2023-04-27T03:42:36.683Z,510.02
2023-04-27T03:45:05.673Z,433.20
2023-04-27T03:47:33.536Z,429.85
2023-04-27T03:50:01.400Z,686.35
2023-04-27T03:52:29.148Z,680.58
2023-04-27T03:54:56.984Z,584.55
2023-04-27T03:57:24.821Z,553.92
2023-04-27T03:59:53.967Z,553.00
2023-04-27T04:02:22.098Z,537.35
2023-04-27T04:04:50.807Z,470.35
2023-04-27T04:07:18.888Z,480.55
2023-04-27T04:09:46.702Z,783.55
2023-04-27T04:12:14.565Z,788.28
2023-04-27T04:14:42.921Z,655.35
2023-04-27T04:17:12.553Z,567.83
2023-04-27T04:19:41.496Z,573.20
2023-04-27T04:22:09.379Z,552.33
2023-04-27T04:24:37.724Z,534.40
2023-04-27T04:27:05.495Z,495.13
2023-04-27T04:29:33.744Z,492.58
2023-04-27T04:32:01.693Z,466.67
2023-04-27T04:34:31.141Z,398.35
2023-04-27T04:36:58.970Z,373.08
2023-04-27T04:39:27.428Z,460.10
2023-04-27T04:41:55.230Z,431.90
2023-04-27T04:44:23.065Z,442.65
2023-04-27T04:46:51.275Z,462.88
2023-04-27T04:49:19.157Z,447.23
2023-04-27T04:51:48.286Z,433.25
2023-04-27T04:54:16.093Z,441.85
2023-04-27T04:56:44.099Z,456.35
2023-04-27T04:59:12.013Z,319.20
2023-04-27T05:01:40.091Z,397.17
2023-04-27T05:04:08.094Z,741.00
2023-04-27T05:06:36.015Z,636.42
2023-04-27T05:09:06.442Z,554.33
2023-04-27T05:11:34.305Z,540.65
2023-04-27T05:14:02.117Z,505.23
2023-04-27T05:16:30.646Z,470.38
2023-04-27T05:18:58.539Z,445.65
2023-04-27T05:21:26.353Z,427.83
2023-04-27T05:23:54.143Z,403.38
2023-04-27T05:26:23.305Z,389.67
2023-04-27T05:28:51.442Z,371.13
2023-04-27T05:31:19.285Z,329.10
2023-04-27T05:33:47.155Z,323.95
2023-04-27T05:36:14.959Z,277.40
2023-04-27T05:38:43.440Z,263.60
2023-04-27T05:41:11.283Z,248.35
2023-04-27T05:43:40.445Z,222.35
2023-04-27T05:46:08.786Z,218.40
2023-04-27T05:48:36.624Z,196.32
2023-04-27T05:51:05.176Z,182.77
2023-04-27T05:53:34.016Z,173.63
2023-04-27T05:56:04.344Z,161.57
2023-04-27T05:58:32.474Z,161.05
2023-04-27T06:01:03.606Z,150.45
2023-04-27T06:03:32.552Z,120.28
2023-04-27T06:06:01.708Z,104.38
2023-04-27T06:08:30.701Z,105.18
2023-04-27T06:10:58.601Z,95.07
2023-04-27T06:13:26.421Z,82.65
2023-04-27T06:15:54.332Z,78.72
2023-04-27T06:18:23.509Z,68.65
2023-04-27T06:20:51.343Z,65.18
2023-04-27T06:23:19.187Z,62.35
2023-04-27T06:25:47.115Z,58.38
2023-04-27T06:28:14.998Z,51.17
2023-04-27T06:30:42.860Z,50.70
2023-04-27T06:33:10.728Z,40.90
2023-04-27T06:35:40.029Z,37.85
2023-04-27T06:38:08.154Z,39.85
2023-04-27T06:40:37.040Z,35.03
2023-04-27T06:43:04.909Z,32.78
2023-04-27T06:45:32.750Z,27.75
2023-04-27T06:48:00.873Z,26.63
2023-04-27T06:50:29.277Z,25.02
2023-04-27T06:52:58.586Z,22.95
2023-04-27T06:55:27.481Z,21.05
2023-04-27T06:57:55.398Z,18.58
2023-04-27T07:00:23.267Z,18.48
2023-04-27T07:02:51.521Z,18.73
2023-04-27T07:05:19.715Z,31.35
2023-04-27T07:07:47.772Z,21.65
2023-04-27T07:10:16.948Z,45.70
2023-04-27T07:12:44.932Z,31.00
2023-04-27T07:15:13.193Z,21.23
2023-04-27T07:17:41.425Z,20.23
2023-04-27T07:20:10.081Z,33.45
2023-04-27T07:22:38.101Z,38.13
2023-04-27T07:25:06.895Z,28.48
2023-04-27T07:27:36.601Z,16.05
2023-04-27T07:30:05.501Z,18.15
2023-04-27T07:32:33.426Z,12.65
2023-04-27T07:35:01.552Z,13.43
2023-04-27T07:37:29.657Z,19.02
2023-04-27T07:39:57.758Z,15.50
2023-04-27T07:42:26.025Z,14.90
2023-04-27T07:44:55.267Z,33.17
2023-04-27T07:47:23.940Z,17.95
2023-04-27T07:49:53.022Z,17.08
2023-04-27T07:52:20.888Z,18.50
2023-04-27T07:54:48.684Z,11.20
2023-04-27T07:57:16.571Z,19.67
2023-04-27T07:59:44.464Z,164.60
2023-04-27T08:02:19.861Z,218.38
2023-04-27T08:04:49.248Z,227.25
2023-04-27T08:07:18.148Z,258.35
2023-04-27T08:09:46.146Z,252.63
2023-04-27T08:12:14.045Z,230.38
2023-04-27T08:14:41.980Z,213.40
2023-04-27T08:17:09.876Z,192.93
2023-04-27T08:19:39.300Z,178.45
2023-04-27T08:22:07.146Z,168.32
2023-04-27T08:24:35.073Z,148.85
2023-04-27T08:27:03.697Z,150.07
2023-04-27T08:29:31.731Z,146.73
2023-04-27T08:32:00.951Z,125.85
2023-04-27T08:34:29.026Z,128.65
2023-04-27T08:36:58.349Z,122.22
2023-04-27T08:39:26.271Z,114.43
2023-04-27T08:41:54.409Z,104.60
2023-04-27T08:44:22.401Z,97.55
2023-04-27T08:46:51.123Z,81.60
2023-04-27T08:49:19.275Z,96.55
2023-04-27T08:51:47.398Z,93.10
2023-04-27T08:54:16.655Z,86.25
2023-04-27T08:56:44.536Z,80.18
2023-04-27T08:59:16.740Z,76.70
2023-04-27T09:01:46.865Z,70.55
2023-04-27T09:04:15.785Z,62.70
2023-04-27T09:06:43.910Z,207.52
2023-04-27T09:09:12.318Z,372.45
2023-04-27T09:11:41.626Z,435.80
2023-04-27T09:14:18.518Z,360.05
2023-04-27T09:16:46.736Z,362.75
2023-04-27T09:19:24.915Z,357.88
2023-04-27T09:21:52.761Z,271.15
2023-04-27T09:24:20.822Z,229.05
2023-04-27T09:26:52.068Z,260.88
2023-04-27T09:31:47.663Z,220.65
2023-04-27T09:34:16.301Z,201.35
2023-04-27T09:36:44.926Z,174.73
2023-04-27T09:39:13.326Z,167.32
2023-04-27T09:41:41.627Z,168.07
2023-04-27T09:44:11.098Z,152.05
2023-04-27T09:46:39.350Z,131.60
2023-04-27T09:49:07.363Z,137.52
2023-04-27T09:51:35.298Z,128.18
2023-04-27T09:54:05.806Z,131.13
2023-04-27T09:56:47.587Z,125.45
2023-04-27T09:59:37.259Z,109.15
2023-04-27T10:02:20.934Z,104.28
2023-04-27T10:05:13.147Z,107.10
2023-04-27T10:07:41.903Z,98.45
2023-04-27T10:10:18.861Z,94.63
2023-04-27T10:12:57.208Z,88.88
2023-04-27T10:15:29.791Z,79.43
2023-04-27T10:17:59.197Z,76.63
2023-04-27T10:20:31.848Z,75.35
2023-04-27T10:23:01.048Z,73.80
2023-04-27T10:25:30.663Z,65.75
2023-04-27T10:28:01.160Z,67.13
2023-04-27T10:30:35.687Z,63.35
2023-04-27T10:33:07.267Z,56.58
2023-04-27T10:35:37.201Z,56.03
2023-04-27T10:38:08.486Z,56.10
2023-04-27T10:40:36.921Z,50.20
2023-04-27T10:43:13.377Z,49.22
2023-04-27T10:45:43.625Z,48.72
2023-04-27T10:48:15.692Z,43.55
2023-04-27T10:50:44.810Z,41.00
2023-04-27T10:53:12.849Z,38.65
2023-04-27T10:55:40.870Z,35.65
2023-04-27T10:58:08.790Z,38.35
2023-04-27T11:00:41.500Z,30.20
2023-04-27T11:03:15.860Z,34.80
2023-04-27T11:05:45.173Z,31.40
2023-04-27T11:08:14.678Z,31.33
2023-04-27T11:10:46.039Z,26.42
2023-04-27T11:13:15.773Z,24.63
2023-04-27T11:15:45.688Z,22.58
2023-04-27T11:18:15.748Z,22.13
2023-04-27T11:20:45.477Z,19.40
2023-04-27T11:23:25.037Z,19.05
2023-04-27T11:25:53.221Z,20.73
2023-04-27T11:28:21.958Z,19.27
2023-04-27T11:30:57.044Z,20.17
2023-04-27T11:33:26.400Z,17.00
2023-04-27T11:35:54.751Z,17.83
2023-04-27T11:38:22.900Z,15.45
2023-04-27T11:41:01.347Z,16.50
2023-04-27T11:43:29.722Z,17.20
2023-04-27T11:45:58.356Z,15.60
2023-04-27T11:48:28.941Z,14.32
2023-04-27T11:50:59.205Z,12.65
2023-04-27T11:53:32.087Z,14.77
2023-04-27T11:56:01.150Z,13.45
2023-04-27T11:58:29.976Z,14.65
2023-04-27T12:00:58.725Z,12.68
2023-04-27T12:03:29.345Z,11.85
2023-04-27T12:06:04.141Z,11.18
2023-04-27T12:08:39.859Z,26.13
2023-04-27T12:11:07.733Z,25.17
2023-04-27T12:13:35.548Z,18.58
2023-04-27T12:16:03.413Z,17.17
2023-04-27T12:18:32.829Z,21.48
2023-04-27T12:21:03.090Z,36.70
2023-04-27T12:23:31.536Z,14.30
2023-04-27T12:25:59.440Z,18.98
2023-04-27T12:28:27.408Z,18.55
2023-04-27T12:30:55.370Z,18.02
2023-04-27T12:33:23.311Z,18.90
2023-04-27T12:35:52.966Z,17.63
2023-04-27T12:38:20.803Z,17.55
2023-04-27T12:40:49.012Z,18.33
2023-04-27T12:43:17.290Z,19.17
2023-04-27T12:45:46.166Z,16.15
2023-04-27T12:48:16.938Z,13.23
2023-04-27T12:50:45.708Z,10.27
2023-04-27T12:53:14.983Z,16.90
2023-04-27T12:55:42.966Z,12.48
2023-04-27T12:58:11.068Z,12.35
2023-04-27T13:00:39.078Z,12.20
2023-04-27T13:03:07.797Z,10.88
2023-04-27T13:05:36.525Z,10.13
2023-04-27T13:08:04.744Z,9.02
2023-04-27T13:10:34.027Z,12.73
2023-04-27T13:13:02.379Z,10.38
2023-04-27T13:15:30.279Z,7.85
2023-04-27T13:17:59.099Z,8.75
2023-04-27T13:20:27.105Z,6.28
2023-04-27T13:22:54.949Z,6.75
2023-04-27T13:25:23.678Z,7.65
2023-04-27T13:27:57.920Z,5.22
2023-04-27T13:30:25.828Z,7.28
2023-04-27T13:32:54.125Z,5.18
2023-04-27T13:35:23.836Z,5.55
2023-04-27T13:37:53.865Z,5.60
2023-04-27T13:40:22.118Z,4.65
2023-04-27T13:42:50.816Z,3.75
2023-04-27T13:45:20.122Z,3.97
2023-04-27T13:47:48.035Z,4.07
2023-04-27T13:50:16.335Z,4.90
2023-04-27T13:52:44.249Z,5.03
2023-04-27T13:55:12.727Z,3.30
2023-04-27T13:57:40.573Z,5.03
2023-04-27T14:00:11.197Z,4.45
2023-04-27T14:02:40.617Z,3.50
2023-04-27T14:05:08.959Z,4.75
2023-04-27T14:07:37.024Z,4.00
2023-04-27T14:10:05.297Z,3.72
2023-04-27T14:12:33.799Z,3.33
2023-04-27T14:15:01.624Z,3.58
2023-04-27T14:17:29.492Z,3.38
2023-04-27T14:19:58.646Z,3.08
2023-04-27T14:22:26.514Z,2.50
2023-04-27T14:24:56.418Z,3.35
2023-04-27T14:27:24.418Z,2.60
2023-04-27T14:29:52.346Z,3.38
2023-04-27T14:32:20.263Z,2.65
2023-04-27T14:34:48.127Z,2.17
2023-04-27T14:37:17.662Z,19.13
2023-04-27T14:39:45.583Z,12.70
2023-04-27T14:42:13.506Z,7.80
2023-04-27T14:44:41.358Z,9.77
2023-04-27T14:47:09.313Z,14.63
2023-04-27T14:49:37.245Z,9.13
2023-04-27T14:52:06.642Z,8.75
2023-04-27T14:54:38.443Z,34.75
2023-04-27T14:57:06.405Z,159.80
2023-04-27T14:59:35.192Z,147.95
2023-04-27T15:02:03.247Z,144.98
2023-04-27T15:04:31.108Z,143.07
2023-04-27T15:06:58.918Z,114.63
2023-04-27T15:09:26.846Z,121.80
2023-04-27T15:11:56.049Z,113.07
2023-04-27T15:14:23.852Z,113.72
2023-04-27T15:16:51.921Z,100.88
2023-04-27T15:19:19.789Z,94.15
2023-04-27T15:21:48.611Z,97.20
2023-04-27T15:24:16.444Z,92.63
2023-04-27T15:26:44.293Z,90.05
2023-04-27T15:29:14.867Z,76.47
2023-04-27T15:31:42.964Z,60.17
2023-04-27T15:34:10.854Z,54.78
2023-04-27T15:36:38.768Z,59.25
2023-04-27T15:39:09.328Z,60.28
2023-04-27T15:41:38.069Z,43.05
2023-04-27T15:44:06.466Z,36.78
2023-04-27T15:46:36.493Z,26.88
2023-04-27T15:49:04.544Z,34.15
2023-04-27T15:51:32.373Z,31.67
2023-04-27T15:54:00.198Z,27.52
2023-04-27T15:56:30.488Z,32.13
2023-04-27T15:58:58.757Z,28.77
2023-04-27T16:01:27.629Z,38.30
2023-04-27T16:03:57.435Z,21.23
2023-04-27T16:06:31.946Z,25.42
2023-04-27T16:09:00.018Z,20.48
2023-04-27T16:11:27.934Z,16.92
2023-04-27T16:13:55.771Z,18.98
2023-04-27T16:16:23.727Z,16.50
2023-04-27T16:18:51.635Z,15.50
2023-04-27T16:21:21.370Z,15.20
2023-04-27T16:23:49.367Z,15.98
2023-04-27T16:26:17.539Z,14.45
2023-04-27T16:28:45.629Z,14.35
2023-04-27T16:31:14.040Z,15.00
2023-04-27T16:33:42.211Z,15.10
2023-04-27T16:36:11.266Z,11.77
2023-04-27T16:38:40.468Z,13.65
2023-04-27T16:41:08.310Z,13.27
2023-04-27T16:43:36.207Z,11.55
2023-04-27T16:46:04.133Z,12.05
2023-04-27T16:48:32.458Z,12.15
2023-04-27T16:51:00.939Z,10.50
2023-04-27T16:53:28.778Z,10.05
2023-04-27T16:56:00.793Z,9.45
2023-04-27T16:58:29.796Z,8.05
2023-04-27T17:00:58.087Z,8.35
2023-04-27T17:03:26.894Z,9.35
2023-04-27T17:05:54.837Z,10.23
2023-04-27T17:08:22.705Z,8.85
2023-04-27T17:10:50.888Z,8.35
2023-04-27T17:13:20.247Z,8.40
2023-04-27T17:15:48.232Z,7.88
2023-04-27T17:18:16.191Z,6.63
2023-04-27T17:20:45.069Z,6.63
2023-04-27T17:23:12.933Z,5.95
2023-04-27T17:25:41.474Z,6.97
2023-04-27T17:28:09.511Z,5.20
2023-04-27T17:30:38.802Z,8.70
2023-04-27T17:33:06.767Z,4.90
2023-04-27T17:35:34.707Z,5.28
2023-04-27T17:38:02.899Z,4.75
2023-04-27T17:40:31.909Z,4.78
2023-04-27T17:43:00.142Z,5.35
2023-04-27T17:45:29.145Z,5.43
2023-04-27T17:47:58.501Z,5.07
2023-04-27T17:50:26.821Z,4.47
2023-04-27T17:52:54.996Z,4.97
2023-04-27T17:55:23.441Z,5.28
2023-04-27T17:57:51.590Z,4.30
2023-04-27T18:00:19.923Z,4.30
2023-04-27T18:02:48.530Z,4.47
2023-04-27T18:05:18.431Z,4.68
2023-04-27T18:07:47.182Z,3.50
2023-04-27T18:10:15.259Z,4.43
2023-04-27T18:12:43.281Z,3.33
2023-04-27T18:15:11.555Z,3.40
2023-04-27T18:17:39.404Z,4.05
2023-04-27T18:20:10.151Z,3.83
2023-04-27T18:22:41.130Z,3.92
2023-04-27T18:25:10.235Z,4.07
2023-04-27T18:27:38.457Z,3.33
2023-04-27T18:30:08.297Z,3.72
2023-04-27T18:32:36.414Z,3.30
2023-04-27T18:35:05.595Z,3.13
2023-04-27T18:37:33.492Z,3.22
2023-04-27T18:40:02.712Z,2.92
2023-04-27T18:42:30.717Z,3.20
2023-04-27T18:45:01.821Z,3.45
2023-04-27T18:47:29.965Z,2.60
2023-04-27T18:49:57.990Z,2.60
2023-04-27T18:52:25.871Z,3.10
2023-04-27T18:54:53.780Z,2.45
2023-04-27T18:57:23.307Z,2.53
2023-04-27T18:59:51.139Z,2.70
2023-04-27T19:02:19.051Z,3.03
2023-04-27T19:04:52.820Z,2.33
2023-04-27T19:07:25.367Z,2.10
2023-04-27T19:09:55.051Z,2.80
2023-04-27T19:12:25.198Z,2.10
2023-04-27T19:14:53.150Z,2.60
2023-04-27T19:17:21.373Z,2.30
2023-04-27T19:19:49.957Z,2.45
2023-04-27T19:22:17.864Z,2.55
2023-04-27T19:24:45.750Z,2.78
2023-04-27T19:27:14.017Z,2.15
2023-04-27T19:29:52.883Z,2.88
2023-04-27T19:32:21.485Z,2.58
2023-04-27T19:34:49.666Z,2.60
2023-04-27T19:37:17.920Z,2.53
2023-04-27T19:39:45.808Z,3.35
2023-04-27T19:42:14.089Z,28.27
2023-04-27T19:44:42.009Z,14.10
2023-04-27T19:47:11.838Z,9.00
2023-04-27T19:49:40.070Z,8.68
2023-04-27T19:52:07.930Z,14.27
2023-04-27T19:54:38.307Z,6.80
2023-04-27T19:57:06.627Z,6.88
2023-04-27T19:59:35.529Z,6.53
2023-04-27T20:02:04.374Z,10.82
2023-04-27T20:04:34.575Z,4.18
2023-04-27T20:07:04.392Z,6.03
2023-04-27T20:09:33.595Z,4.70
2023-04-27T20:12:01.483Z,6.35
2023-04-27T20:14:31.314Z,5.55
2023-04-27T20:16:59.173Z,3.95
2023-04-27T20:19:27.026Z,3.17
2023-04-27T20:21:56.186Z,4.55
2023-04-27T20:24:24.590Z,3.95
2023-04-27T20:26:52.417Z,2.85
2023-04-27T20:29:20.225Z,3.20
2023-04-27T20:31:48.982Z,3.70
2023-04-27T20:34:17.085Z,3.53
2023-04-27T20:36:45.299Z,3.80
2023-04-27T20:39:15.276Z,3.30
2023-04-27T20:41:44.250Z,2.95
2023-04-27T20:44:13.082Z,2.63
2023-04-27T20:46:41.524Z,3.17
2023-04-27T20:49:09.379Z,2.13
2023-04-27T20:51:37.262Z,2.17
2023-04-27T20:54:05.389Z,4.18
2023-04-27T20:56:34.662Z,2.22
2023-04-27T20:59:02.646Z,4.32
2023-04-27T21:01:30.619Z,2.20
2023-04-27T21:03:58.667Z,3.03
2023-04-27T21:06:26.708Z,2.00
2023-04-27T21:08:54.538Z,3.53
2023-04-27T21:11:22.523Z,4.28
2023-04-27T21:13:51.729Z,2.47
2023-04-27T21:16:19.652Z,1.90
2023-04-27T21:18:47.480Z,2.33
2023-04-27T21:21:15.507Z,1.42
2023-04-27T21:23:43.366Z,2.05
2023-04-27T21:26:11.353Z,3.88
2023-04-27T21:28:40.241Z,1.60
2023-04-27T21:31:09.656Z,1.92
2023-04-27T21:33:37.954Z,1.45
2023-04-27T21:36:06.519Z,1.52
2023-04-27T21:38:34.369Z,1.67
2023-04-27T21:41:02.318Z,1.80
2023-04-27T21:43:30.165Z,2.15
2023-04-27T21:45:57.994Z,1.27
2023-04-27T21:48:27.173Z,1.33
2023-04-27T21:50:54.962Z,1.30
2023-04-27T21:53:23.140Z,1.30
2023-04-27T21:55:51.231Z,2.28
2023-04-27T21:58:19.739Z,2.08
2023-04-27T22:00:48.642Z,1.48
2023-04-27T22:03:16.778Z,1.00
2023-04-27T22:05:48.848Z,1.52
2023-04-27T22:08:17.376Z,1.30
2023-04-27T22:10:45.474Z,1.20
2023-04-27T22:13:18.301Z,1.42
2023-04-27T22:15:47.097Z,1.45
2023-04-27T22:18:15.455Z,1.58
2023-04-27T22:20:43.909Z,1.27
2023-04-27T22:23:13.121Z,1.58
2023-04-27T22:25:42.619Z,1.45
2023-04-27T22:28:11.078Z,2.22
2023-04-27T22:30:39.904Z,2.20
2023-04-27T22:33:08.077Z,1.58
2023-04-27T22:35:37.040Z,1.40
2023-04-27T22:38:04.935Z,1.30
2023-04-27T22:40:34.250Z,1.30
2023-04-27T22:43:02.086Z,1.48
2023-04-27T22:45:29.894Z,0.90
2023-04-27T22:47:58.527Z,1.40
2023-04-27T22:50:26.716Z,2.35
2023-04-27T22:52:54.501Z,1.42
2023-04-27T22:55:22.347Z,2.38
2023-04-27T22:57:53.674Z,1.52
2023-04-27T23:02:49.484Z,1.02
2023-04-27T23:05:17.661Z,1.20
2023-04-27T23:07:46.328Z,0.65
2023-04-27T23:10:15.344Z,1.25
2023-04-27T23:12:43.223Z,1.13
2023-04-27T23:15:12.816Z,1.55
2023-04-27T23:17:40.592Z,0.80
2023-04-27T23:20:24.099Z,1.13
2023-04-27T23:22:55.687Z,0.90
2023-04-27T23:25:23.541Z,1.00
2023-04-27T23:27:52.588Z,1.15
2023-04-27T23:30:22.620Z,1.02
2023-04-27T23:32:50.566Z,1.48
2023-04-27T23:35:18.630Z,1.23
2023-04-27T23:37:46.415Z,1.90
2023-04-27T23:40:14.352Z,2.47
2023-04-27T23:42:42.165Z,0.93
2023-04-27T23:45:10.486Z,1.83
2023-04-27T23:47:39.646Z,1.33
2023-04-27T23:50:08.117Z,1.33
2023-04-27T23:52:36.102Z,1.63
2023-04-27T23:55:04.030Z,1.67
2023-04-27T23:57:31.873Z,1.23
2023-04-27T23:59:59.714Z,1.10
